createdAt,value
2018-10-16T00:00:02.778Z,16.10
2018-10-16T00:02:30.847Z,16.30
2018-10-16T00:04:58.932Z,16.40
2018-10-16T00:07:27.000Z,16.30
2018-10-16T00:09:55.088Z,16.30
2018-10-16T00:12:23.164Z,16.40
2018-10-16T00:14:51.228Z,16.20
2018-10-16T00:17:19.320Z,16.00
2018-10-16T00:19:47.399Z,15.90
2018-10-16T00:22:15.480Z,15.80
2018-10-16T00:24:43.565Z,15.70
2018-10-16T00:27:11.658Z,15.70
2018-10-16T00:29:39.720Z,15.60
2018-10-16T00:32:07.795Z,15.60
2018-10-16T00:34:35.877Z,15.60
2018-10-16T00:37:04.142Z,15.70
2018-10-16T00:39:32.205Z,15.90
2018-10-16T00:42:00.311Z,16.00
2018-10-16T00:44:29.001Z,16.10
2018-10-16T00:46:57.092Z,16.20
2018-10-16T00:49:25.152Z,16.10
2018-10-16T00:51:53.266Z,16.10
2018-10-16T00:54:21.395Z,16.20
2018-10-16T00:56:49.468Z,16.30
2018-10-16T00:59:17.530Z,16.20
2018-10-16T01:01:45.597Z,16.20
2018-10-16T01:04:13.696Z,16.20
2018-10-16T01:06:41.769Z,16.20
2018-10-16T01:09:11.021Z,16.20
2018-10-16T01:11:39.548Z,16.30
2018-10-16T01:14:07.625Z,16.30
2018-10-16T01:16:35.749Z,16.20
2018-10-16T01:19:03.833Z,16.20
2018-10-16T01:21:31.900Z,16.30
2018-10-16T01:23:59.968Z,16.20
2018-10-16T01:26:28.064Z,16.30
2018-10-16T01:28:56.145Z,16.30
2018-10-16T01:31:24.209Z,16.30
2018-10-16T01:33:52.276Z,16.40
2018-10-16T01:36:20.398Z,16.40
2018-10-16T01:38:48.468Z,16.50
2018-10-16T01:41:16.542Z,16.40
2018-10-16T01:43:44.624Z,16.30
2018-10-16T01:46:12.701Z,16.20
2018-10-16T01:48:40.765Z,16.10
2018-10-16T01:51:08.855Z,16.00
2018-10-16T01:53:36.937Z,16.00
2018-10-16T01:56:05.028Z,15.90
2018-10-16T01:58:33.124Z,16.10
2018-10-16T02:01:01.185Z,16.10
2018-10-16T02:03:30.072Z,16.10
2018-10-16T02:05:58.148Z,16.00
2018-10-16T02:08:26.228Z,16.00
2018-10-16T02:10:54.293Z,15.90
2018-10-16T02:13:22.376Z,15.80
2018-10-16T02:15:50.452Z,15.60
2018-10-16T02:18:18.537Z,15.70
2018-10-16T02:20:46.628Z,15.80
2018-10-16T02:23:14.709Z,16.00
2018-10-16T02:25:42.791Z,15.90
2018-10-16T02:28:10.857Z,15.90
2018-10-16T02:30:38.948Z,16.00
2018-10-16T02:33:07.036Z,16.00
2018-10-16T02:35:35.105Z,16.00
2018-10-16T02:38:03.241Z,15.90
2018-10-16T02:40:31.332Z,16.00
2018-10-16T02:42:59.414Z,16.00
2018-10-16T02:45:27.481Z,16.00
2018-10-16T02:47:55.549Z,16.10
2018-10-16T02:50:23.628Z,15.90
2018-10-16T02:52:51.695Z,15.90
2018-10-16T02:55:19.796Z,15.90
2018-10-16T02:57:47.854Z,15.90
2018-10-16T03:00:15.934Z,15.90
2018-10-16T03:02:43.997Z,15.90
2018-10-16T03:05:12.076Z,15.80
2018-10-16T03:07:40.146Z,15.80
2018-10-16T03:10:08.225Z,15.80
2018-10-16T03:12:36.320Z,16.00
2018-10-16T03:15:07.540Z,16.00
2018-10-16T03:17:35.606Z,15.90
2018-10-16T03:20:03.689Z,15.80
2018-10-16T03:22:31.780Z,15.90
2018-10-16T03:24:59.854Z,15.70
2018-10-16T03:27:27.966Z,15.70
2018-10-16T03:29:56.045Z,15.70
2018-10-16T03:32:24.098Z,15.80
2018-10-16T03:34:52.179Z,15.80
2018-10-16T03:37:20.262Z,15.90
2018-10-16T03:39:48.333Z,15.80
2018-10-16T03:42:16.404Z,15.70
2018-10-16T03:44:44.501Z,15.80
2018-10-16T03:47:12.572Z,15.80
2018-10-16T03:49:40.636Z,15.80
2018-10-16T03:52:08.721Z,15.80
2018-10-16T03:54:36.794Z,15.90
2018-10-16T03:57:05.143Z,15.90
2018-10-16T03:59:33.229Z,15.70
2018-10-16T04:02:01.303Z,15.60
2018-10-16T04:04:29.381Z,15.70
2018-10-16T04:06:57.489Z,15.60
2018-10-16T04:09:25.560Z,15.50
2018-10-16T04:11:53.649Z,15.30
2018-10-16T04:14:21.782Z,15.10
2018-10-16T04:16:49.898Z,15.10
2018-10-16T04:19:17.944Z,15.20
2018-10-16T04:21:47.032Z,15.10
2018-10-16T04:24:16.310Z,15.10
2018-10-16T04:26:44.373Z,15.20
2018-10-16T04:29:12.707Z,15.10
2018-10-16T04:31:40.752Z,15.00
2018-10-16T04:34:09.832Z,15.10
2018-10-16T04:36:37.905Z,15.10
2018-10-16T04:39:09.881Z,15.00
2018-10-16T04:41:38.054Z,15.00
2018-10-16T04:44:06.021Z,15.10
2018-10-16T04:46:34.073Z,15.20
2018-10-16T04:49:02.145Z,15.30
2018-10-16T04:51:30.209Z,15.40
2018-10-16T04:53:58.261Z,15.20
2018-10-16T04:56:26.377Z,15.10
2018-10-16T04:58:54.445Z,15.00
2018-10-16T05:01:22.521Z,15.00
2018-10-16T05:03:50.573Z,14.90
2018-10-16T05:06:18.630Z,14.80
2018-10-16T05:08:46.749Z,14.80
2018-10-16T05:11:14.789Z,14.80
2018-10-16T05:13:42.903Z,14.80
2018-10-16T05:16:10.973Z,15.00
2018-10-16T05:18:39.032Z,15.10
2018-10-16T05:21:07.114Z,15.10
2018-10-16T05:23:35.210Z,15.20
2018-10-16T05:26:03.447Z,15.10
2018-10-16T05:28:31.908Z,15.10
2018-10-16T05:30:59.930Z,15.10
2018-10-16T05:33:28.174Z,15.20
2018-10-16T05:35:56.253Z,15.20
2018-10-16T05:38:24.350Z,15.30
2018-10-16T05:40:52.397Z,15.50
2018-10-16T05:43:20.485Z,15.50
2018-10-16T05:45:48.586Z,15.70
2018-10-16T05:48:16.654Z,15.80
2018-10-16T05:50:44.837Z,15.80
2018-10-16T05:53:12.918Z,15.70
2018-10-16T05:55:40.993Z,15.90
2018-10-16T05:58:09.156Z,16.10
2018-10-16T06:00:39.275Z,16.10
2018-10-16T06:03:07.660Z,16.20
2018-10-16T06:05:35.846Z,16.40
2018-10-16T06:08:03.886Z,16.50
2018-10-16T06:10:31.965Z,16.60
2018-10-16T06:13:00.585Z,16.60
2018-10-16T06:15:28.653Z,16.70
2018-10-16T06:17:57.708Z,16.70
2018-10-16T06:20:25.782Z,16.80
2018-10-16T06:22:53.864Z,16.90
2018-10-16T06:25:21.944Z,17.00
2018-10-16T06:27:50.953Z,17.10
2018-10-16T06:30:19.031Z,17.20
2018-10-16T06:32:47.080Z,17.20
2018-10-16T06:35:16.129Z,17.10
2018-10-16T06:37:44.233Z,17.20
2018-10-16T06:40:12.292Z,17.30
2018-10-16T06:42:40.461Z,17.30
2018-10-16T06:45:09.762Z,17.50
2018-10-16T06:47:37.928Z,17.40
2018-10-16T06:50:07.581Z,17.40
2018-10-16T06:52:35.797Z,17.40
2018-10-16T06:55:03.933Z,17.40
2018-10-16T06:57:33.348Z,17.50
2018-10-16T07:00:01.483Z,17.60
2018-10-16T07:02:29.512Z,17.60
2018-10-16T07:04:57.816Z,17.60
2018-10-16T07:07:25.966Z,17.80
2018-10-16T07:09:53.962Z,17.70
2018-10-16T07:12:22.029Z,17.70
2018-10-16T07:14:50.120Z,17.80
2018-10-16T07:17:18.159Z,17.90
2018-10-16T07:19:46.241Z,18.00
2018-10-16T07:22:14.329Z,17.90
2018-10-16T07:24:42.382Z,17.70
2018-10-16T07:27:10.460Z,17.60
2018-10-16T07:29:38.529Z,17.60
2018-10-16T07:32:06.634Z,17.50
2018-10-16T07:34:35.389Z,17.50
2018-10-16T07:37:03.488Z,17.50
2018-10-16T07:39:31.607Z,17.50
2018-10-16T07:41:59.681Z,17.50
2018-10-16T07:44:27.812Z,17.60
2018-10-16T07:46:55.889Z,17.70
2018-10-16T07:49:23.958Z,17.90
2018-10-16T07:51:52.029Z,18.00
2018-10-16T07:54:20.113Z,18.00
2018-10-16T07:56:48.321Z,18.10
2018-10-16T07:59:16.380Z,18.20
2018-10-16T08:01:44.469Z,18.30
2018-10-16T08:04:12.845Z,18.30
2018-10-16T08:06:41.288Z,18.30
2018-10-16T08:09:12.266Z,18.10
2018-10-16T08:11:44.144Z,18.20
2018-10-16T08:14:13.040Z,18.20
2018-10-16T08:16:41.172Z,18.20
2018-10-16T08:19:09.377Z,18.30
2018-10-16T08:24:24.841Z,18.20
2018-10-16T08:26:53.022Z,18.20
2018-10-16T08:29:21.196Z,18.30
2018-10-16T08:31:49.316Z,18.40
2018-10-16T08:34:17.799Z,18.50
2018-10-16T08:36:46.644Z,18.50
2018-10-16T08:39:16.461Z,18.50
2018-10-16T08:41:54.165Z,18.40
2018-10-16T08:45:18.966Z,18.50
2018-10-16T08:47:59.105Z,18.70
2018-10-16T08:50:40.480Z,18.90
2018-10-16T08:53:08.537Z,18.90
2018-10-16T08:55:36.881Z,19.00
2018-10-16T08:58:05.633Z,19.00
2018-10-16T09:00:34.504Z,19.10
2018-10-16T09:03:02.581Z,19.30
2018-10-16T09:05:30.948Z,19.50
2018-10-16T09:07:58.985Z,19.50
2018-10-16T09:10:27.532Z,19.70
2018-10-16T09:12:55.580Z,19.60
2018-10-16T09:15:24.265Z,19.70
2018-10-16T09:17:52.309Z,19.80
2018-10-16T09:20:20.385Z,20.00
2018-10-16T09:22:48.464Z,20.00
2018-10-16T09:25:16.575Z,20.10
2018-10-16T09:27:44.544Z,20.00
2018-10-16T09:30:13.708Z,20.00
2018-10-16T09:32:41.881Z,19.90
2018-10-16T09:35:11.401Z,19.90
2018-10-16T09:37:39.927Z,20.00
2018-10-16T09:40:10.401Z,20.00
2018-10-16T09:42:38.496Z,20.10
2018-10-16T09:45:07.265Z,20.20
2018-10-16T09:47:35.341Z,20.40
2018-10-16T09:50:03.425Z,20.50
2018-10-16T09:52:31.481Z,20.70
2018-10-16T09:54:59.542Z,20.90
2018-10-16T09:57:27.603Z,21.10
2018-10-16T09:59:55.651Z,21.30
2018-10-16T10:02:23.698Z,21.70
2018-10-16T10:04:51.753Z,21.90
2018-10-16T10:07:19.817Z,21.90
2018-10-16T10:09:47.860Z,21.90
2018-10-16T10:12:20.510Z,21.90
2018-10-16T10:14:48.557Z,21.90
2018-10-16T10:17:16.635Z,21.70
2018-10-16T10:19:44.685Z,21.60
2018-10-16T10:22:12.732Z,21.50
2018-10-16T10:24:40.801Z,21.60
2018-10-16T10:27:08.837Z,21.80
2018-10-16T10:29:36.943Z,22.10
2018-10-16T10:32:05.633Z,22.20
2018-10-16T10:34:33.668Z,22.20
2018-10-16T10:37:01.762Z,22.30
2018-10-16T10:39:29.809Z,22.30
2018-10-16T10:41:57.846Z,22.30
2018-10-16T10:44:25.885Z,22.20
2018-10-16T10:46:53.927Z,22.20
2018-10-16T10:49:21.964Z,22.30
2018-10-16T10:51:50.021Z,22.30
2018-10-16T10:54:18.068Z,22.20
2018-10-16T10:56:46.282Z,22.20
2018-10-16T10:59:14.216Z,22.20
2018-10-16T11:01:42.290Z,22.20
2018-10-16T11:04:10.333Z,21.90
2018-10-16T11:06:38.573Z,21.90
2018-10-16T11:09:08.836Z,21.80
2018-10-16T11:11:36.965Z,21.80
2018-10-16T11:14:05.169Z,21.90
2018-10-16T11:16:33.282Z,21.80
2018-10-16T11:19:01.369Z,21.70
2018-10-16T11:21:29.421Z,21.70
2018-10-16T11:23:57.474Z,21.70
2018-10-16T11:26:28.368Z,21.70
2018-10-16T11:28:56.420Z,21.80
2018-10-16T11:31:24.485Z,21.90
2018-10-16T11:33:52.556Z,21.90
2018-10-16T11:36:20.773Z,22.00
2018-10-16T11:38:48.844Z,22.20
2018-10-16T11:41:16.921Z,22.50
2018-10-16T11:43:45.004Z,22.80
2018-10-16T11:46:13.076Z,23.00
2018-10-16T11:48:41.156Z,23.30
2018-10-16T11:51:09.197Z,23.20
2018-10-16T11:53:37.281Z,23.20
2018-10-16T11:56:05.758Z,22.80
2018-10-16T11:58:33.790Z,22.70
2018-10-16T12:01:01.858Z,22.50
2018-10-16T12:03:29.913Z,22.30
2018-10-16T12:05:57.993Z,22.10
2018-10-16T12:08:26.046Z,22.00
2018-10-16T12:10:54.090Z,22.00
2018-10-16T12:13:22.154Z,22.00
2018-10-16T12:15:50.216Z,22.10
2018-10-16T12:18:23.782Z,22.20
2018-10-16T12:21:24.154Z,22.50
2018-10-16T12:23:52.214Z,22.70
2018-10-16T12:26:20.796Z,22.70
2018-10-16T12:28:48.936Z,22.60
2018-10-16T12:31:16.985Z,22.40
2018-10-16T12:33:45.049Z,22.30
2018-10-16T12:36:13.105Z,22.20
2018-10-16T12:38:41.166Z,22.20
2018-10-16T12:41:09.259Z,22.10
2018-10-16T12:43:37.394Z,22.00
2018-10-16T12:46:05.705Z,22.00
2018-10-16T12:48:33.781Z,22.00
2018-10-16T12:51:01.915Z,22.00
2018-10-16T12:53:30.291Z,22.00
2018-10-16T12:55:58.548Z,22.00
2018-10-16T12:58:26.719Z,22.00
2018-10-16T13:00:54.833Z,22.00
2018-10-16T13:06:03.958Z,21.70
2018-10-16T13:08:32.025Z,21.70
2018-10-16T13:11:00.116Z,21.70
2018-10-16T13:13:28.129Z,21.70
2018-10-16T13:15:56.171Z,21.70
2018-10-16T13:18:24.204Z,21.70
2018-10-16T13:20:52.261Z,21.70
2018-10-16T13:23:20.376Z,21.70
2018-10-16T13:25:48.391Z,21.70
2018-10-16T13:28:16.492Z,21.80
2018-10-16T13:30:44.543Z,22.00
2018-10-16T13:33:12.621Z,22.00
2018-10-16T13:35:40.656Z,22.20
2018-10-16T13:38:08.834Z,22.30
2018-10-16T13:40:36.889Z,22.40
2018-10-16T13:43:05.270Z,22.30
2018-10-16T13:45:33.328Z,22.10
2018-10-16T13:48:01.369Z,22.00
2018-10-16T13:50:29.418Z,21.90
2018-10-16T13:52:57.461Z,21.90
2018-10-16T13:55:25.620Z,21.90
2018-10-16T13:57:53.696Z,21.80
2018-10-16T14:00:21.721Z,21.90
2018-10-16T14:02:51.835Z,22.00
2018-10-16T14:05:19.898Z,22.10
2018-10-16T14:07:52.948Z,22.10
2018-10-16T14:10:20.945Z,22.00
2018-10-16T14:12:49.145Z,22.10
2018-10-16T14:15:17.635Z,22.20
2018-10-16T14:17:45.692Z,22.20
2018-10-16T14:20:13.884Z,22.30
2018-10-16T14:22:42.802Z,22.30
2018-10-16T14:25:12.053Z,22.40
2018-10-16T14:27:40.822Z,22.40
2018-10-16T14:30:10.647Z,22.60
2018-10-16T14:32:38.746Z,22.70
2018-10-16T14:35:07.517Z,22.80
2018-10-16T14:37:36.295Z,22.80
2018-10-16T14:40:04.395Z,22.70
2018-10-16T14:42:32.443Z,22.60
2018-10-16T14:45:00.468Z,22.40
2018-10-16T14:47:28.577Z,22.40
2018-10-16T14:49:57.071Z,22.40
2018-10-16T14:52:25.277Z,22.30
2018-10-16T14:54:53.312Z,22.20
2018-10-16T14:57:21.348Z,22.20
2018-10-16T14:59:49.454Z,22.20
2018-10-16T15:02:17.460Z,22.00
2018-10-16T15:04:45.509Z,22.00
2018-10-16T15:07:13.579Z,21.80
2018-10-16T15:09:41.679Z,21.70
2018-10-16T15:12:09.712Z,21.60
2018-10-16T15:14:37.753Z,21.50
2018-10-16T15:17:06.142Z,21.50
2018-10-16T15:19:34.165Z,21.40
2018-10-16T15:22:02.336Z,21.40
2018-10-16T15:24:30.469Z,21.30
2018-10-16T15:26:58.513Z,21.20
2018-10-16T15:29:26.577Z,21.20
2018-10-16T15:31:54.646Z,21.10
2018-10-16T15:34:26.972Z,21.10
2018-10-16T15:36:55.115Z,21.00
2018-10-16T15:39:23.177Z,20.90
2018-10-16T15:41:51.272Z,20.90
2018-10-16T15:44:19.301Z,20.80
2018-10-16T15:46:47.348Z,20.80
2018-10-16T15:49:15.397Z,20.70
2018-10-16T15:51:43.439Z,20.70
2018-10-16T15:54:11.501Z,20.70
2018-10-16T15:56:39.591Z,20.70
2018-10-16T15:59:07.633Z,20.60
2018-10-16T16:01:35.685Z,20.60
2018-10-16T16:04:03.861Z,20.60
2018-10-16T16:06:31.910Z,20.60
2018-10-16T16:08:59.949Z,20.60
2018-10-16T16:11:27.990Z,20.60
2018-10-16T16:13:56.156Z,20.70
2018-10-16T16:16:24.181Z,20.70
2018-10-16T16:18:52.291Z,20.70
2018-10-16T16:21:20.338Z,20.70
2018-10-16T16:23:48.428Z,20.70
2018-10-16T16:26:16.552Z,20.70
2018-10-16T16:28:44.577Z,20.70
2018-10-16T16:31:12.764Z,20.70
2018-10-16T16:33:40.872Z,20.60
2018-10-16T16:36:09.134Z,20.50
2018-10-16T16:38:39.387Z,20.40
2018-10-16T16:41:07.657Z,20.40
2018-10-16T16:43:35.741Z,20.40
2018-10-16T16:46:03.993Z,20.40
2018-10-16T16:48:40.300Z,20.50
2018-10-16T16:51:08.367Z,20.40
2018-10-16T16:53:36.435Z,20.40
2018-10-16T16:56:04.559Z,20.40
2018-10-16T16:58:33.040Z,20.40
2018-10-16T17:01:01.181Z,20.50
2018-10-16T17:03:29.339Z,20.40
2018-10-16T17:05:57.451Z,20.40
2018-10-16T17:08:25.509Z,20.30
2018-10-16T17:10:53.565Z,20.30
2018-10-16T17:13:21.613Z,20.30
2018-10-16T17:15:49.750Z,20.10
2018-10-16T17:18:18.008Z,20.10
2018-10-16T17:20:46.160Z,20.10
2018-10-16T17:23:14.981Z,20.10
2018-10-16T17:25:44.545Z,20.10
2018-10-16T17:28:12.720Z,20.10
2018-10-16T17:30:40.873Z,20.20
2018-10-16T17:33:08.989Z,20.20
2018-10-16T17:35:37.886Z,20.10
2018-10-16T17:38:06.844Z,20.20
2018-10-16T17:40:34.958Z,20.30
2018-10-16T17:43:03.054Z,20.40
2018-10-16T17:45:31.468Z,20.50
2018-10-16T17:47:59.709Z,20.60
2018-10-16T17:50:27.788Z,20.70
2018-10-16T17:52:55.854Z,20.80
2018-10-16T17:55:23.893Z,20.80
2018-10-16T17:57:52.026Z,20.90
2018-10-16T18:00:20.133Z,20.90
2018-10-16T18:02:48.508Z,20.90
2018-10-16T18:05:17.086Z,21.00
2018-10-16T18:07:45.751Z,21.00
2018-10-16T18:10:18.381Z,20.90
2018-10-16T18:12:48.664Z,20.90
2018-10-16T18:15:19.313Z,20.90
2018-10-16T18:17:49.114Z,20.80
2018-10-16T18:20:17.408Z,20.70
2018-10-16T18:22:46.118Z,20.70
2018-10-16T18:25:14.581Z,20.70
2018-10-16T18:27:43.896Z,20.60
2018-10-16T18:30:14.309Z,20.60
2018-10-16T18:32:44.262Z,20.60
2018-10-16T18:35:13.228Z,20.60
2018-10-16T18:37:43.497Z,20.50
2018-10-16T18:40:14.028Z,20.50
2018-10-16T18:42:42.758Z,20.50
2018-10-16T18:45:12.332Z,20.40
2018-10-16T18:47:40.693Z,20.20
2018-10-16T18:50:12.473Z,20.20
2018-10-16T18:52:40.804Z,20.30
2018-10-16T18:55:12.004Z,20.10
2018-10-16T18:57:40.289Z,20.20
2018-10-16T19:00:11.517Z,20.20
2018-10-16T19:02:40.502Z,20.30
2018-10-16T19:05:09.953Z,20.10
2018-10-16T19:07:38.482Z,20.00
2018-10-16T19:10:07.187Z,20.10
2018-10-16T19:12:37.702Z,20.00
2018-10-16T19:15:07.848Z,19.90
2018-10-16T19:17:37.814Z,20.00
2018-10-16T19:20:08.185Z,20.10
2018-10-16T19:22:40.960Z,20.10
2018-10-16T19:25:11.735Z,20.20
2018-10-16T19:27:40.008Z,20.20
2018-10-16T19:30:14.625Z,20.30
2018-10-16T19:32:42.768Z,20.30
2018-10-16T19:35:12.143Z,20.20
2018-10-16T19:37:40.324Z,20.20
2018-10-16T19:40:08.565Z,20.10
2018-10-16T19:42:36.613Z,19.90
2018-10-16T19:45:05.016Z,19.70
2018-10-16T19:47:33.092Z,19.50
2018-10-16T19:50:01.227Z,19.30
2018-10-16T19:52:29.309Z,19.20
2018-10-16T19:54:57.369Z,19.20
2018-10-16T19:57:25.440Z,19.20
2018-10-16T19:59:53.644Z,19.00
2018-10-16T20:02:21.661Z,19.00
2018-10-16T20:04:49.728Z,19.00
2018-10-16T20:07:17.851Z,19.10
2018-10-16T20:09:45.926Z,19.20
2018-10-16T20:12:14.075Z,19.30
2018-10-16T20:14:42.302Z,19.40
2018-10-16T20:17:10.406Z,19.50
2018-10-16T20:19:38.569Z,19.60
2018-10-16T20:22:08.564Z,19.50
2018-10-16T20:24:36.661Z,19.40
2018-10-16T20:27:04.930Z,19.40
2018-10-16T20:29:33.261Z,19.50
2018-10-16T20:32:01.319Z,19.40
2018-10-16T20:34:29.377Z,19.40
2018-10-16T20:36:57.620Z,19.40
2018-10-16T20:39:26.692Z,19.50
2018-10-16T20:41:54.860Z,19.50
2018-10-16T20:44:22.908Z,19.30
2018-10-16T20:46:50.996Z,19.00
2018-10-16T20:49:19.078Z,18.70
2018-10-16T20:51:47.148Z,18.40
2018-10-16T20:54:15.201Z,18.20
2018-10-16T20:56:43.256Z,18.10
2018-10-16T20:59:11.304Z,18.10
2018-10-16T21:01:39.374Z,18.10
2018-10-16T21:04:07.488Z,18.10
2018-10-16T21:06:35.835Z,18.20
2018-10-16T21:09:04.568Z,18.30
2018-10-16T21:11:32.628Z,18.40
2018-10-16T21:14:00.728Z,18.50
2018-10-16T21:16:28.888Z,18.40
2018-10-16T21:18:56.980Z,18.50
2018-10-16T21:21:25.038Z,18.50
2018-10-16T21:23:53.117Z,18.30
2018-10-16T21:26:21.449Z,18.10
2018-10-16T21:28:49.548Z,18.10
2018-10-16T21:31:17.597Z,18.10
2018-10-16T21:33:45.668Z,18.10
2018-10-16T21:36:13.746Z,18.00
2018-10-16T21:38:41.889Z,18.00
2018-10-16T21:41:10.097Z,17.90
2018-10-16T21:43:38.197Z,17.70
2018-10-16T21:46:06.448Z,17.60
2018-10-16T21:48:34.553Z,17.40
2018-10-16T21:51:02.614Z,17.40
2018-10-16T21:53:30.708Z,17.50
2018-10-16T21:55:58.744Z,17.50
2018-10-16T21:58:26.808Z,17.30
2018-10-16T22:01:00.394Z,17.30
2018-10-16T22:03:28.546Z,17.40
2018-10-16T22:05:56.581Z,17.50
2018-10-16T22:08:24.672Z,17.50
2018-10-16T22:10:52.766Z,17.40
2018-10-16T22:13:20.791Z,17.20
2018-10-16T22:15:48.840Z,17.10
2018-10-16T22:18:16.880Z,17.00
2018-10-16T22:20:44.932Z,17.10
2018-10-16T22:23:13.061Z,17.10
2018-10-16T22:25:41.043Z,16.90
2018-10-16T22:28:09.096Z,16.80
2018-10-16T22:30:37.148Z,16.60
2018-10-16T22:33:05.364Z,16.50
2018-10-16T22:35:33.416Z,16.50
2018-10-16T22:38:01.476Z,16.60
2018-10-16T22:40:29.544Z,16.60
2018-10-16T22:42:57.608Z,16.60
2018-10-16T22:45:25.646Z,16.50
2018-10-16T22:47:53.692Z,16.60
2018-10-16T22:50:21.755Z,16.60
2018-10-16T22:52:49.831Z,16.60
2018-10-16T22:55:17.908Z,16.60
2018-10-16T22:57:45.934Z,16.70
2018-10-16T23:00:16.852Z,16.70
2018-10-16T23:02:45.860Z,16.70
2018-10-16T23:05:14.036Z,16.70
2018-10-16T23:07:42.504Z,16.50
2018-10-16T23:10:10.676Z,16.50
2018-10-16T23:12:38.740Z,16.60
2018-10-16T23:15:07.545Z,16.60
2018-10-16T23:17:35.597Z,16.50
2018-10-16T23:20:03.644Z,16.50
2018-10-16T23:22:31.724Z,16.60
2018-10-16T23:24:59.864Z,16.60
2018-10-16T23:27:27.888Z,16.60
2018-10-16T23:29:55.935Z,16.60
2018-10-16T23:32:24.004Z,16.50
2018-10-16T23:34:52.069Z,16.40
2018-10-16T23:37:20.117Z,16.20
2018-10-16T23:39:48.172Z,16.10
2018-10-16T23:42:16.250Z,16.20
2018-10-16T23:44:44.316Z,16.30
2018-10-16T23:47:12.526Z,16.40
2018-10-16T23:49:40.492Z,16.40
2018-10-16T23:52:08.557Z,16.40
2018-10-16T23:54:36.628Z,16.40
2018-10-16T23:57:04.716Z,16.40
2018-10-16T23:59:32.817Z,16.50
